Time;durP1;ratioP1;P1;durP2;ratioP2;P2;SDS_P1;SDS_P2;PMS_P1;PMS_P2;Temp;Humidity;BMP_temperature;BMP_pressure;BME280_temperature;BME280_humidity;BME280_pressure;Samples;Min_cycle;Max_cycle;Signal;HPM_P1;HPM_P2
2021/10/07 00:02:12;;;;;;;13.82;2.97;;;13.40;99.90;;;;;;5025524;28;25111;-69
2021/10/07 00:04:38;;;;;;;9.65;2.33;;;13.40;99.90;;;;;;5048377;28;25080;-68
2021/10/07 00:07:04;;;;;;;13.77;2.92;;;13.40;99.90;;;;;;5061140;28;25121;-70
2021/10/07 00:09:38;;;;;;;15.80;3.53;;;13.40;99.90;;;;;;5042843;28;25062;-69
2021/10/07 00:12:05;;;;;;;15.38;3.40;;;13.40;99.90;;;;;;5052299;28;25071;-68
2021/10/07 00:14:30;;;;;;;9.95;2.42;;;13.40;99.90;;;;;;5048399;28;25082;-70
2021/10/07 00:16:56;;;;;;;12.88;3.33;;;13.40;99.90;;;;;;5036956;28;25162;-75
2021/10/07 00:19:22;;;;;;;12.30;2.80;;;13.40;99.90;;;;;;5043884;28;25116;-69
2021/10/07 00:21:47;;;;;;;12.57;3.03;;;13.40;99.90;;;;;;5030187;28;25086;-71
2021/10/07 00:24:13;;;;;;;11.98;3.08;;;13.40;99.90;;;;;;5026139;28;25058;-71
2021/10/07 00:26:41;;;;;;;7.57;2.63;;;13.40;99.90;;;;;;5043863;28;25070;-72
2021/10/07 00:31:39;;;;;;;15.65;3.03;;;13.50;99.90;;;;;;5040017;28;25059;-71
2021/10/07 00:39:04;;;;;;;12.07;2.65;;;13.50;99.90;;;;;;5037756;28;25089;-69
2021/10/07 00:41:31;;;;;;;11.45;2.88;;;13.40;99.90;;;;;;5041029;28;25097;-71
2021/10/07 00:44:03;;;;;;;13.52;3.25;;;13.40;99.90;;;;;;5026227;28;25056;-70
2021/10/07 00:46:28;;;;;;;13.10;3.13;;;13.40;99.90;;;;;;5047259;28;25094;-71
2021/10/07 00:48:54;;;;;;;15.10;3.15;;;13.40;99.90;;;;;;5043762;28;25113;-70
2021/10/07 00:51:20;;;;;;;14.50;4.00;;;13.40;99.90;;;;;;5040786;28;25081;-70
2021/10/07 00:53:45;;;;;;;15.88;3.40;;;13.40;99.90;;;;;;5023451;28;25070;-70
2021/10/07 00:56:11;;;;;;;14.82;3.35;;;13.30;99.90;;;;;;5037721;28;25053;-71
2021/10/07 00:58:39;;;;;;;11.70;3.63;;;13.30;99.90;;;;;;5027516;28;25088;-76
2021/10/07 01:01:05;;;;;;;13.43;3.15;;;13.30;99.90;;;;;;5031011;28;25088;-70
2021/10/07 01:03:33;;;;;;;15.57;3.10;;;13.40;99.90;;;;;;5043952;28;25061;-71
2021/10/07 01:05:59;;;;;;;14.70;2.80;;;13.40;99.90;;;;;;5038566;28;25079;-72
2021/10/07 01:08:25;;;;;;;11.23;2.83;;;13.40;99.90;;;;;;5031398;28;25061;-68
2021/10/07 01:10:50;;;;;;;13.57;2.47;;;13.40;99.90;;;;;;5038493;28;25061;-69
2021/10/07 01:13:16;;;;;;;15.88;3.67;;;13.40;99.90;;;;;;5037152;28;25118;-70
2021/10/07 01:15:42;;;;;;;15.30;2.90;;;13.40;99.90;;;;;;5042355;28;25053;-69
2021/10/07 01:18:08;;;;;;;12.55;3.25;;;13.50;99.90;;;;;;5040937;28;25108;-69
2021/10/07 01:20:34;;;;;;;11.07;2.80;;;13.50;99.90;;;;;;5037748;28;25064;-69
2021/10/07 01:22:59;;;;;;;11.02;3.22;;;13.60;99.90;;;;;;5023799;28;25059;-69
2021/10/07 01:25:32;;;;;;;12.27;2.63;;;13.50;99.90;;;;;;5038477;28;25064;-68
2021/10/07 01:27:57;;;;;;;;;;;13.50;99.90;;;;;;5027261;28;25121;-68
2021/10/07 01:30:23;;;;;;;9.82;2.30;;;13.50;99.90;;;;;;5037437;28;25116;-71
2021/10/07 01:32:49;;;;;;;15.40;2.80;;;13.40;99.90;;;;;;5038518;28;25517;-70
2021/10/07 01:35:15;;;;;;;11.40;2.90;;;13.40;99.90;;;;;;5044990;28;25110;-69
2021/10/07 01:37:40;;;;;;;13.82;2.28;;;13.40;99.90;;;;;;5045861;28;25072;-71
2021/10/07 01:40:08;;;;;;;11.63;2.60;;;13.40;99.90;;;;;;5045485;28;25125;-71
2021/10/07 01:42:36;;;;;;;13.60;2.85;;;13.40;99.90;;;;;;5045308;28;25062;-70
2021/10/07 01:45:02;;;;;;;14.63;2.95;;;13.40;99.90;;;;;;5024160;28;25061;-71
2021/10/07 01:47:28;;;;;;;12.18;2.78;;;13.40;99.90;;;;;;5037464;28;25065;-69
2021/10/07 01:49:54;;;;;;;10.23;3.13;;;13.40;99.90;;;;;;5036570;28;25134;-69
2021/10/07 01:52:20;;;;;;;11.55;3.00;;;13.40;99.90;;;;;;5038548;28;25092;-69
2021/10/07 01:54:45;;;;;;;14.00;2.55;;;13.40;99.90;;;;;;5024162;28;25071;-72
2021/10/07 01:57:11;;;;;;;17.00;3.35;;;13.30;99.90;;;;;;5026884;28;25065;-72
2021/10/07 01:59:37;;;;;;;11.05;2.50;;;13.30;99.90;;;;;;5041422;28;25110;-71
2021/10/07 02:02:02;;;;;;;13.98;2.78;;;13.40;99.90;;;;;;5020115;28;25057;-72
2021/10/07 02:04:28;;;;;;;16.77;2.65;;;13.40;99.90;;;;;;5045325;28;25060;-70
2021/10/07 02:06:54;;;;;;;11.32;3.08;;;13.40;99.90;;;;;;5042437;28;25140;-71
2021/10/07 02:09:19;;;;;;;12.50;2.72;;;13.40;99.90;;;;;;5029878;28;25052;-72
2021/10/07 02:11:45;;;;;;;12.07;2.53;;;13.40;99.90;;;;;;5018717;28;25062;-71
2021/10/07 02:14:10;;;;;;;14.15;3.17;;;13.40;99.90;;;;;;5039003;28;25077;-68
2021/10/07 02:16:36;;;;;;;11.32;2.90;;;13.40;99.90;;;;;;5046304;28;25077;-73
2021/10/07 02:19:02;;;;;;;10.95;2.65;;;13.40;99.90;;;;;;5044771;28;25078;-70
2021/10/07 02:21:28;;;;;;;9.27;2.70;;;13.30;99.90;;;;;;5044467;28;25068;-70
2021/10/07 02:23:54;;;;;;;11.60;2.45;;;13.30;99.90;;;;;;5042854;28;25078;-71
2021/10/07 02:26:20;;;;;;;9.10;2.60;;;13.30;99.90;;;;;;5042962;28;25066;-70
2021/10/07 02:28:46;;;;;;;9.63;2.50;;;13.30;99.90;;;;;;5017344;28;25136;-70
2021/10/07 02:31:12;;;;;;;12.48;2.72;;;13.40;99.90;;;;;;5022633;28;25067;-71
2021/10/07 02:33:38;;;;;;;5.10;2.03;;;13.40;99.90;;;;;;5043968;28;25065;-71
2021/10/07 02:36:05;;;;;;;8.90;2.20;;;13.50;99.90;;;;;;5057785;28;25063;-71
2021/10/07 02:38:31;;;;;;;11.27;2.83;;;13.60;99.90;;;;;;5039865;28;25067;-71
2021/10/07 02:40:56;;;;;;;14.63;2.80;;;13.60;99.90;;;;;;5055807;28;25066;-70
2021/10/07 02:43:22;;;;;;;10.38;3.15;;;13.60;99.90;;;;;;5038895;28;25074;-70
2021/10/07 02:45:49;;;;;;;9.73;2.60;;;13.60;99.90;;;;;;5026472;28;25039;-75
2021/10/07 02:48:14;;;;;;;13.60;2.90;;;13.60;99.90;;;;;;5052516;28;25060;-70
2021/10/07 02:50:40;;;;;;;13.77;3.38;;;13.60;99.90;;;;;;5031819;28;25058;-70
2021/10/07 02:53:06;;;;;;;10.68;2.80;;;13.70;99.90;;;;;;5063641;28;25053;-71
2021/10/07 02:55:32;;;;;;;13.85;2.95;;;13.70;99.90;;;;;;5056631;28;25069;-71
2021/10/07 02:57:57;;;;;;;8.30;2.70;;;13.80;99.90;;;;;;5048316;28;25151;-72
2021/10/07 03:00:23;;;;;;;21.08;3.13;;;13.80;99.90;;;;;;5047396;28;25078;-70
2021/10/07 03:02:49;;;;;;;13.63;2.85;;;13.80;99.90;;;;;;5046568;28;25074;-69
2021/10/07 03:05:14;;;;;;;8.48;3.47;;;13.80;99.90;;;;;;5048069;28;25102;-70
2021/10/07 03:07:40;;;;;;;12.32;2.80;;;13.80;99.90;;;;;;5033242;28;25054;-69
2021/10/07 03:10:07;;;;;;;13.50;3.30;;;14.00;99.90;;;;;;5039569;28;25084;-70
2021/10/07 03:12:32;;;;;;;15.10;3.40;;;14.00;99.90;;;;;;5047259;28;25063;-73
2021/10/07 03:14:58;;;;;;;14.35;3.60;;;14.20;99.90;;;;;;5031751;28;25079;-70
2021/10/07 03:17:24;;;;;;;14.45;2.88;;;14.20;99.90;;;;;;5043582;28;25062;-71
2021/10/07 03:19:50;;;;;;;12.90;3.58;;;14.30;99.90;;;;;;5026282;28;25137;-71
2021/10/07 03:22:16;;;;;;;12.07;3.67;;;14.40;99.90;;;;;;5026341;28;25081;-71
2021/10/07 03:24:42;;;;;;;10.35;3.67;;;14.40;99.90;;;;;;5027409;28;25121;-70
2021/10/07 03:27:09;;;;;;;14.35;4.07;;;14.40;99.90;;;;;;5046795;28;25072;-71
2021/10/07 03:29:34;;;;;;;12.27;3.50;;;14.40;99.90;;;;;;5033501;28;25075;-71
2021/10/07 03:32:00;;;;;;;16.90;4.03;;;14.40;99.90;;;;;;5049491;28;25051;-70
2021/10/07 03:34:26;;;;;;;15.93;3.22;;;14.30;99.90;;;;;;5036387;28;25052;-72
2021/10/07 03:36:52;;;;;;;14.75;4.15;;;14.40;99.90;;;;;;5016638;28;25100;-71
2021/10/07 03:39:18;;;;;;;14.35;3.97;;;14.30;99.90;;;;;;5044262;28;25123;-72
2021/10/07 03:41:44;;;;;;;18.35;3.55;;;14.20;99.90;;;;;;5048624;28;25067;-71
2021/10/07 03:44:09;;;;;;;22.60;4.60;;;13.90;99.90;;;;;;5053707;28;25079;-71
2021/10/07 03:46:35;;;;;;;17.88;3.85;;;13.80;99.90;;;;;;5048954;28;25077;-72
2021/10/07 03:49:01;;;;;;;21.20;4.90;;;13.80;99.90;;;;;;5044951;28;25062;-74
2021/10/07 03:51:26;;;;;;;20.70;4.13;;;13.90;99.90;;;;;;5046507;28;25073;-72
2021/10/07 03:53:52;;;;;;;22.85;4.75;;;13.90;99.90;;;;;;5030280;28;25072;-70
2021/10/07 03:56:18;;;;;;;17.58;4.32;;;13.90;99.90;;;;;;5041544;28;25069;-71
2021/10/07 03:58:44;;;;;;;25.25;4.82;;;13.80;99.90;;;;;;5030460;28;25080;-71
2021/10/07 04:01:09;;;;;;;17.80;4.47;;;13.90;99.90;;;;;;5046368;28;25078;-74
2021/10/07 04:03:35;;;;;;;15.55;4.32;;;13.90;99.90;;;;;;5043057;28;25080;-70
2021/10/07 04:06:01;;;;;;;21.63;4.70;;;14.10;99.90;;;;;;5045591;28;25080;-71
2021/10/07 04:08:26;;;;;;;18.90;4.20;;;14.00;99.90;;;;;;5045553;28;25115;-69
2021/10/07 04:10:52;;;;;;;15.90;4.53;;;14.00;99.90;;;;;;5046003;28;25072;-73
2021/10/07 04:13:19;;;;;;;15.85;4.47;;;14.00;99.90;;;;;;5027292;28;25060;-74
2021/10/07 04:15:46;;;;;;;11.60;3.72;;;14.00;99.90;;;;;;5021844;28;25060;-69
2021/10/07 04:18:13;;;;;;;16.25;4.55;;;14.10;99.90;;;;;;5042583;28;25064;-71
2021/10/07 04:20:39;;;;;;;26.65;5.80;;;14.30;99.90;;;;;;5041019;28;25073;-70
2021/10/07 04:23:05;;;;;;;14.13;4.68;;;14.30;99.90;;;;;;5034426;28;25087;-71
2021/10/07 04:25:31;;;;;;;16.55;4.68;;;14.30;99.90;;;;;;5036874;28;25128;-69
2021/10/07 04:27:56;;;;;;;14.15;4.18;;;14.40;99.90;;;;;;5042414;28;25078;-71
2021/10/07 04:30:22;;;;;;;20.73;4.85;;;14.40;99.90;;;;;;5045138;28;25072;-70
2021/10/07 04:32:48;;;;;;;22.38;4.93;;;14.40;99.90;;;;;;5021232;28;25066;-70
2021/10/07 04:35:13;;;;;;;26.02;5.45;;;14.40;99.90;;;;;;5025211;28;25129;-71
2021/10/07 04:37:39;;;;;;;23.55;5.53;;;14.40;99.90;;;;;;5040953;28;25063;-71
2021/10/07 04:40:06;;;;;;;23.25;5.68;;;14.40;99.90;;;;;;5039990;28;25139;-71
2021/10/07 04:42:32;;;;;;;21.85;5.72;;;14.50;99.90;;;;;;5026197;28;25061;-72
2021/10/07 04:44:57;;;;;;;15.20;5.47;;;14.60;99.90;;;;;;5025897;28;25091;-71
2021/10/07 04:47:23;;;;;;;17.63;5.03;;;14.60;99.90;;;;;;5042581;28;25125;-72
2021/10/07 04:49:48;;;;;;;23.63;5.35;;;14.60;99.90;;;;;;5025594;28;25081;-71
2021/10/07 04:52:14;;;;;;;14.35;5.50;;;14.60;99.90;;;;;;5041480;28;25105;-70
2021/10/07 04:54:40;;;;;;;22.13;6.82;;;14.70;99.90;;;;;;5046744;28;25050;-72
2021/10/07 04:57:05;;;;;;;19.52;5.68;;;14.70;99.90;;;;;;5027383;28;25118;-71
2021/10/07 04:59:31;;;;;;;20.30;5.85;;;14.60;99.90;;;;;;5042406;28;25160;-69
2021/10/07 05:01:57;;;;;;;23.98;6.35;;;14.50;99.90;;;;;;5039268;28;25098;-70
2021/10/07 05:04:22;;;;;;;20.65;5.40;;;14.40;99.90;;;;;;5039248;28;25144;-72
2021/10/07 05:06:48;;;;;;;21.73;6.10;;;14.20;99.90;;;;;;5019448;28;25120;-70
2021/10/07 05:09:14;;;;;;;20.23;5.88;;;14.00;99.90;;;;;;5038720;28;25066;-72
2021/10/07 05:11:39;;;;;;;23.95;6.07;;;14.00;99.90;;;;;;5017454;28;25074;-72
2021/10/07 05:14:05;;;;;;;26.08;5.57;;;13.90;99.90;;;;;;5044138;28;25075;-72
2021/10/07 05:16:31;;;;;;;15.90;4.93;;;14.00;99.90;;;;;;5025109;28;25056;-72
2021/10/07 05:18:56;;;;;;;21.25;6.35;;;14.00;99.90;;;;;;5025556;28;25076;-70
2021/10/07 05:21:22;;;;;;;14.52;5.18;;;14.10;99.90;;;;;;5044285;28;25068;-71
2021/10/07 05:23:47;;;;;;;21.13;5.80;;;14.20;99.90;;;;;;5029426;28;25141;-69
2021/10/07 05:26:13;;;;;;;30.48;5.53;;;14.10;99.90;;;;;;5026643;28;25077;-68
2021/10/07 05:28:42;;;;;;;26.33;5.97;;;14.00;99.90;;;;;;5025425;28;25046;-71
2021/10/07 05:31:07;;;;;;;17.17;5.57;;;14.00;99.90;;;;;;5041486;28;25127;-71
2021/10/07 05:33:33;;;;;;;24.13;4.90;;;13.90;99.90;;;;;;5042786;28;25106;-70
2021/10/07 05:35:59;;;;;;;18.42;4.65;;;13.90;99.90;;;;;;5044301;28;25156;-72
2021/10/07 05:38:24;;;;;;;22.67;5.38;;;13.90;99.90;;;;;;5051291;28;25089;-71
2021/10/07 05:40:50;;;;;;;23.90;5.28;;;14.00;99.90;;;;;;5050076;28;25070;-72
2021/10/07 05:43:15;;;;;;;21.50;5.50;;;13.90;99.90;;;;;;5030624;28;25128;-71
2021/10/07 05:45:41;;;;;;;24.27;5.40;;;13.90;99.90;;;;;;5034236;28;25162;-69
2021/10/07 05:48:07;;;;;;;23.63;4.80;;;13.90;99.90;;;;;;5041484;28;25062;-71
2021/10/07 05:50:32;;;;;;;25.77;5.15;;;13.90;99.90;;;;;;5001236;28;25145;-71
2021/10/07 05:52:58;;;;;;;24.00;5.45;;;13.90;99.90;;;;;;5040677;28;25081;-70
2021/10/07 05:55:24;;;;;;;23.90;5.15;;;13.80;99.90;;;;;;5039873;28;25108;-71
2021/10/07 05:57:49;;;;;;;27.23;5.18;;;13.90;99.90;;;;;;5020555;28;25078;-70
2021/10/07 06:00:15;;;;;;;23.95;5.00;;;14.00;99.90;;;;;;5019094;28;25075;-68
2021/10/07 06:02:41;;;;;;;18.98;5.57;;;14.00;99.90;;;;;;5039800;28;25055;-69
2021/10/07 06:05:08;;;;;;;21.52;5.53;;;14.00;99.90;;;;;;5024197;28;25157;-72
2021/10/07 06:07:34;;;;;;;31.38;5.97;;;14.20;99.90;;;;;;5035049;28;25085;-71
2021/10/07 06:10:00;;;;;;;18.73;5.07;;;14.20;99.90;;;;;;5043076;28;25112;-70
2021/10/07 06:12:26;;;;;;;24.77;6.25;;;14.10;99.90;;;;;;5025604;28;25133;-71
2021/10/07 06:14:51;;;;;;;20.88;5.40;;;14.10;99.90;;;;;;5024806;28;25063;-72
2021/10/07 06:17:19;;;;;;;21.15;5.72;;;14.00;99.90;;;;;;5044350;28;25063;-69
2021/10/07 06:19:47;;;;;;;17.90;5.30;;;14.00;99.90;;;;;;5039043;28;25065;-70
2021/10/07 06:22:14;;;;;;;20.73;5.75;;;14.10;99.90;;;;;;5036452;28;25099;-70
2021/10/07 06:24:39;;;;;;;26.17;6.18;;;14.10;99.90;;;;;;5041346;28;25072;-70
2021/10/07 06:27:05;;;;;;;15.90;5.32;;;14.10;99.90;;;;;;5040869;28;25134;-70
2021/10/07 06:29:31;;;;;;;25.67;6.35;;;14.30;99.90;;;;;;5042777;28;25063;-70
2021/10/07 06:31:57;;;;;;;21.95;6.78;;;14.30;99.90;;;;;;5040201;28;25098;-69
2021/10/07 06:34:22;;;;;;;20.60;6.28;;;14.20;99.90;;;;;;5043441;28;25098;-70
2021/10/07 06:36:48;;;;;;;17.20;5.53;;;14.20;99.90;;;;;;5044797;28;25162;-70
2021/10/07 06:39:14;;;;;;;24.15;6.95;;;14.30;99.90;;;;;;5027757;28;25134;-69
2021/10/07 06:41:39;;;;;;;23.13;7.45;;;14.20;99.90;;;;;;5047667;28;25124;-69
2021/10/07 06:44:05;;;;;;;24.17;5.82;;;14.20;99.90;;;;;;5044762;28;25137;-69
2021/10/07 06:46:31;;;;;;;19.88;5.85;;;14.20;99.90;;;;;;5047615;28;25092;-68
2021/10/07 06:48:57;;;;;;;15.23;6.28;;;14.20;99.90;;;;;;5048121;28;25141;-69
2021/10/07 06:51:24;;;;;;;17.27;6.57;;;14.20;99.90;;;;;;5046232;28;25058;-68
2021/10/07 06:53:53;;;;;;;23.75;6.68;;;14.20;99.90;;;;;;5047388;28;25067;-71
2021/10/07 06:56:20;;;;;;;17.35;6.22;;;14.30;99.90;;;;;;5046075;28;26174;-71
2021/10/07 06:58:47;;;;;;;22.30;7.38;;;14.30;99.90;;;;;;5045469;28;25168;-70
2021/10/07 07:01:13;;;;;;;24.52;9.07;;;14.40;99.90;;;;;;5028290;28;25108;-70
2021/10/07 07:03:39;;;;;;;15.82;6.50;;;14.40;99.90;;;;;;5043826;28;25107;-68
2021/10/07 07:06:04;;;;;;;17.73;6.88;;;14.40;99.90;;;;;;5024893;28;25085;-69
2021/10/07 07:08:30;;;;;;;29.20;9.27;;;14.50;99.90;;;;;;5043450;28;25094;-69
2021/10/07 07:10:55;;;;;;;30.88;17.23;;;14.60;99.90;;;;;;5024828;28;25109;-67
2021/10/07 07:13:21;;;;;;;19.95;9.88;;;14.70;99.90;;;;;;5042286;28;25125;-69
2021/10/07 07:15:46;;;;;;;19.70;8.52;;;14.60;99.90;;;;;;5025162;28;25067;-70
2021/10/07 07:18:12;;;;;;;25.58;8.38;;;14.40;99.90;;;;;;5047489;28;25146;-70
2021/10/07 07:20:38;;;;;;;17.83;8.45;;;14.50;99.90;;;;;;5046248;28;25153;-69
2021/10/07 07:23:10;;;;;;;19.45;8.45;;;14.50;99.90;;;;;;5043613;28;25053;-70
2021/10/07 07:25:36;;;;;;;20.00;7.82;;;14.50;99.90;;;;;;5041626;28;25100;-70
2021/10/07 07:28:01;;;;;;;20.15;8.20;;;14.50;99.90;;;;;;5044959;28;25073;-68
2021/10/07 07:30:27;;;;;;;15.55;9.52;;;14.40;99.90;;;;;;5044701;28;25077;-70
2021/10/07 07:32:52;;;;;;;22.30;9.43;;;14.40;99.90;;;;;;5044338;28;25106;-69
2021/10/07 07:35:18;;;;;;;23.33;10.68;;;14.40;99.90;;;;;;5038384;28;25123;-69
2021/10/07 07:37:43;;;;;;;17.25;8.60;;;14.50;99.90;;;;;;5036315;28;25114;-70
2021/10/07 07:40:10;;;;;;;22.48;10.07;;;14.70;99.90;;;;;;5046452;28;25061;-69
2021/10/07 07:42:35;;;;;;;31.92;11.15;;;14.70;99.90;;;;;;5045040;28;25131;-70
2021/10/07 07:45:01;;;;;;;31.60;10.13;;;14.70;99.90;;;;;;5042003;28;25108;-70
2021/10/07 07:47:26;;;;;;;22.98;10.80;;;14.80;99.90;;;;;;5042437;28;25081;-69
2021/10/07 07:49:52;;;;;;;20.58;10.25;;;14.80;99.90;;;;;;5041258;28;25137;-70
2021/10/07 07:52:17;;;;;;;24.80;10.93;;;14.80;99.90;;;;;;5046005;28;25067;-70
2021/10/07 07:54:43;;;;;;;24.40;9.90;;;14.90;99.90;;;;;;5033655;28;25119;-67
2021/10/07 07:57:09;;;;;;;20.42;9.73;;;15.10;99.90;;;;;;5057108;28;25105;-69
2021/10/07 07:59:34;;;;;;;28.38;10.10;;;15.30;99.90;;;;;;5034530;28;25069;-68
2021/10/07 08:02:00;;;;;;;24.75;10.10;;;15.10;99.90;;;;;;5064720;28;25114;-69
2021/10/07 08:04:25;;;;;;;24.23;9.07;;;15.00;99.90;;;;;;5050477;28;25067;-69
2021/10/07 08:06:51;;;;;;;22.55;9.68;;;14.90;99.90;;;;;;5046324;28;25108;-70
2021/10/07 08:09:16;;;;;;;16.50;8.70;;;14.90;99.90;;;;;;5044762;28;25056;-70
2021/10/07 08:11:42;;;;;;;26.23;9.77;;;15.10;99.90;;;;;;5042853;28;25072;-70
2021/10/07 08:14:09;;;;;;;24.45;9.68;;;15.30;99.90;;;;;;5042564;28;25079;-70
2021/10/07 08:16:35;;;;;;;21.55;9.48;;;15.50;99.90;;;;;;5044660;28;25072;-70
2021/10/07 08:19:01;;;;;;;24.60;9.40;;;15.60;99.90;;;;;;5046750;28;25051;-69
2021/10/07 08:21:27;;;;;;;20.15;7.97;;;15.70;99.90;;;;;;5062072;28;25089;-67
2021/10/07 08:23:54;;;;;;;15.38;6.57;;;15.70;99.90;;;;;;5032424;28;25067;-71
2021/10/07 08:26:19;;;;;;;20.70;7.57;;;15.80;99.90;;;;;;5039603;28;25108;-70
2021/10/07 08:28:45;;;;;;;18.13;7.20;;;15.90;99.90;;;;;;5042100;28;25124;-69
2021/10/07 08:31:12;;;;;;;22.33;8.25;;;16.10;99.90;;;;;;5037593;28;25051;-68
2021/10/07 08:33:39;;;;;;;26.85;8.98;;;15.90;99.90;;;;;;5030955;28;25060;-71
2021/10/07 08:36:05;;;;;;;19.98;8.05;;;16.10;99.90;;;;;;5040651;28;25109;-69
2021/10/07 08:38:32;;;;;;;20.05;5.70;;;16.20;99.90;;;;;;5038255;28;25080;-72
2021/10/07 08:40:58;;;;;;;17.40;5.13;;;15.80;99.90;;;;;;5039457;28;25059;-70
2021/10/07 08:43:26;;;;;;;18.45;5.57;;;15.70;99.90;;;;;;5045445;28;25075;-70
2021/10/07 08:45:52;;;;;;;16.30;4.00;;;15.30;99.90;;;;;;5037715;28;25144;-69
2021/10/07 08:48:18;;;;;;;18.63;4.60;;;15.10;99.90;;;;;;5045682;28;25138;-71
2021/10/07 08:50:43;;;;;;;16.08;3.85;;;15.00;99.90;;;;;;5045998;28;25128;-72
2021/10/07 08:53:09;;;;;;;14.27;3.33;;;14.90;99.90;;;;;;5044348;28;25128;-67
2021/10/07 08:55:35;;;;;;;18.77;3.95;;;14.80;99.90;;;;;;5038491;28;25071;-70
2021/10/07 08:58:00;;;;;;;20.73;4.25;;;14.90;99.90;;;;;;5039963;28;25066;-70
2021/10/07 09:00:26;;;;;;;15.25;3.83;;;15.00;99.90;;;;;;5040792;28;25065;-68
2021/10/07 09:02:52;;;;;;;18.00;3.50;;;15.00;99.90;;;;;;5028569;28;25082;-69
2021/10/07 09:05:22;;;;;;;13.20;3.70;;;15.00;99.90;;;;;;5053130;28;25066;-68
2021/10/07 09:08:06;;;;;;;18.48;3.95;;;15.10;99.90;;;;;;5033649;28;25055;-67
2021/10/07 09:10:49;;;;;;;20.88;4.80;;;15.10;99.90;;;;;;5040991;28;25090;-68
2021/10/07 09:13:25;;;;;;;15.63;3.80;;;15.40;99.90;;;;;;5037411;28;25062;-75
2021/10/07 09:15:54;;;;;;;16.33;3.45;;;15.60;99.90;;;;;;5045019;28;25072;-70
2021/10/07 09:18:20;;;;;;;20.40;3.78;;;15.60;99.90;;;;;;5037791;28;25053;-70
2021/10/07 09:20:51;;;;;;;12.77;3.38;;;15.50;99.90;;;;;;5043808;28;25111;-67
2021/10/07 09:23:20;;;;;;;18.10;3.80;;;15.50;99.90;;;;;;5037263;28;25160;-70
2021/10/07 09:25:57;;;;;;;12.73;3.85;;;15.40;99.90;;;;;;5040659;28;25073;-70
2021/10/07 09:28:24;;;;;;;17.98;3.40;;;15.30;99.90;;;;;;5043387;28;25102;-68
2021/10/07 09:30:59;;;;;;;20.77;4.70;;;15.10;99.90;;;;;;5046230;28;25120;-67
2021/10/07 09:33:29;;;;;;;15.35;3.35;;;15.10;99.90;;;;;;5039852;28;25120;-70
2021/10/07 09:36:18;;;;;;;18.42;3.50;;;15.10;99.90;;;;;;5014895;28;25094;-69
2021/10/07 09:38:47;;;;;;;15.63;3.70;;;15.00;99.90;;;;;;5032452;28;25121;-70
2021/10/07 09:41:25;;;;;;;17.17;3.35;;;15.00;99.90;;;;;;5039225;28;25020;-68
2021/10/07 09:44:02;;;;;;;13.13;3.28;;;15.20;99.90;;;;;;5016865;28;25062;-69
2021/10/07 09:46:50;;;;;;;26.83;3.65;;;15.20;99.90;;;;;;5043180;28;25055;-67
2021/10/07 09:49:33;;;;;;;20.23;4.13;;;15.20;99.90;;;;;;5047410;28;25060;-68
2021/10/07 09:52:01;;;;;;;16.15;3.65;;;15.20;99.90;;;;;;5045217;28;25069;-71
2021/10/07 09:54:33;;;;;;;8.50;2.85;;;15.40;99.90;;;;;;5043083;28;25086;-69
2021/10/07 09:57:03;;;;;;;12.73;3.10;;;15.70;99.90;;;;;;5042981;28;25064;-68
2021/10/07 09:59:31;;;;;;;15.00;4.43;;;15.70;99.90;;;;;;5042979;28;25088;-70
2021/10/07 10:01:57;;;;;;;11.20;2.90;;;15.70;99.90;;;;;;5045310;28;25115;-70
2021/10/07 10:04:25;;;;;;;13.02;3.03;;;15.70;99.90;;;;;;5046056;28;25144;-69
2021/10/07 10:06:50;;;;;;;9.85;2.78;;;15.80;99.90;;;;;;5044449;28;25146;-71
2021/10/07 10:09:20;;;;;;;14.18;3.47;;;16.00;99.90;;;;;;5041684;28;25064;-71
2021/10/07 10:11:46;;;;;;;17.27;4.40;;;16.20;99.90;;;;;;5042830;28;25054;-70
2021/10/07 10:14:12;;;;;;;13.27;3.85;;;16.00;99.90;;;;;;5026419;28;25066;-69
2021/10/07 10:16:38;;;;;;;10.70;2.97;;;16.10;99.90;;;;;;5048986;28;25082;-71
2021/10/07 10:19:07;;;;;;;16.65;4.20;;;15.90;99.90;;;;;;5046456;28;25074;-69
2021/10/07 10:21:34;;;;;;;17.05;3.92;;;15.90;99.90;;;;;;5045960;28;25087;-70
2021/10/07 10:24:03;;;;;;;19.73;3.85;;;15.80;99.90;;;;;;5029366;28;25075;-71
2021/10/07 10:26:29;;;;;;;15.98;3.67;;;15.60;99.90;;;;;;5046195;28;25125;-71
2021/10/07 10:28:55;;;;;;;15.05;3.45;;;15.50;99.90;;;;;;5047235;28;25094;-69
2021/10/07 10:31:31;;;;;;;14.70;4.05;;;15.60;99.90;;;;;;5048283;28;25064;-67
2021/10/07 10:34:14;;;;;;;17.88;5.30;;;15.50;99.90;;;;;;5049178;28;25062;-70
2021/10/07 10:36:51;;;;;;;12.43;3.83;;;15.40;99.90;;;;;;5049151;28;25065;-70
2021/10/07 10:39:18;;;;;;;19.50;3.60;;;15.40;99.90;;;;;;5045359;28;25055;-68
2021/10/07 10:41:49;;;;;;;14.50;4.18;;;15.50;99.90;;;;;;5046956;28;25151;-71
2021/10/07 10:44:28;;;;;;;17.48;3.60;;;15.60;99.90;;;;;;5042305;28;25067;-72
2021/10/07 10:47:06;;;;;;;11.70;3.47;;;15.60;99.90;;;;;;5041359;28;25123;-71
2021/10/07 10:50:03;;;;;;;11.32;3.28;;;15.90;99.90;;;;;;5019089;28;25150;-71
2021/10/07 10:52:41;;;;;;;13.18;3.60;;;16.10;99.90;;;;;;5019782;28;25078;-67
2021/10/07 10:55:24;;;;;;;15.50;3.50;;;16.20;99.90;;;;;;5027829;28;25074;-73
2021/10/07 10:58:03;;;;;;;11.82;3.72;;;16.20;99.90;;;;;;5044497;28;25055;-69
2021/10/07 11:00:37;;;;;;;13.68;3.95;;;16.20;99.90;;;;;;5045850;28;25144;-70
2021/10/07 11:03:08;;;;;;;12.13;3.78;;;16.30;99.90;;;;;;5052276;28;25140;-72
2021/10/07 11:05:41;;;;;;;17.13;3.95;;;16.30;99.90;;;;;;5064589;28;25105;-69
2021/10/07 11:08:09;;;;;;;;;;;16.40;99.90;;;;;;5046805;28;25111;-70
2021/10/07 11:10:52;;;;;;;13.15;3.22;;;16.40;99.90;;;;;;5043960;28;25102;-70
2021/10/07 11:13:20;;;;;;;12.32;3.55;;;16.60;99.90;;;;;;5022653;28;25089;-69
2021/10/07 11:15:49;;;;;;;11.70;2.97;;;16.70;99.90;;;;;;5052968;28;25105;-69
2021/10/07 11:18:15;;;;;;;9.57;3.00;;;16.80;99.90;;;;;;5046143;28;25114;-70
2021/10/07 11:20:41;;;;;;;15.45;3.75;;;16.50;99.90;;;;;;5025944;28;25126;-71
2021/10/07 11:23:13;;;;;;;13.00;3.80;;;16.40;99.90;;;;;;5041579;28;25051;-70
2021/10/07 11:25:45;;;;;;;;;;;16.50;99.90;;;;;;5044091;28;25074;-71
2021/10/07 11:28:11;;;;;;;20.33;3.58;;;16.60;99.90;;;;;;5044740;28;24169;-68
2021/10/07 11:30:39;;;;;;;15.40;3.55;;;16.70;99.90;;;;;;5045651;28;25107;-73
2021/10/07 11:33:05;;;;;;;18.33;3.42;;;16.80;99.90;;;;;;5039772;28;25056;-71
2021/10/07 11:35:32;;;;;;;12.43;3.15;;;16.80;99.90;;;;;;5043748;28;25074;-71
2021/10/07 11:38:10;;;;;;;14.35;2.90;;;16.80;99.90;;;;;;5023543;28;25142;-71
2021/10/07 11:40:40;;;;;;;17.35;2.88;;;16.80;99.90;;;;;;5025305;28;25067;-71
2021/10/07 11:43:09;;;;;;;9.07;2.75;;;16.70;99.90;;;;;;5043247;28;25086;-72
2021/10/07 11:45:40;;;;;;;11.35;3.25;;;16.70;99.90;;;;;;5044040;28;25059;-70
2021/10/07 11:48:09;;;;;;;15.23;3.38;;;16.80;99.90;;;;;;5017484;28;25060;-70
2021/10/07 11:50:41;;;;;;;12.18;3.28;;;16.80;99.90;;;;;;5045596;28;25052;-70
2021/10/07 11:53:08;;;;;;;8.75;2.72;;;16.90;99.90;;;;;;5015612;28;25055;-69
2021/10/07 11:55:39;;;;;;;13.50;2.80;;;16.90;99.90;;;;;;5041011;28;25116;-69
2021/10/07 11:58:05;;;;;;;16.50;3.47;;;17.00;99.90;;;;;;5046369;28;25143;-70
2021/10/07 12:00:36;;;;;;;10.00;3.15;;;17.00;99.90;;;;;;5041664;28;25075;-69
2021/10/07 12:03:25;;;;;;;8.45;3.08;;;16.90;99.90;;;;;;5033170;28;25068;-69
2021/10/07 12:06:00;;;;;;;12.38;2.70;;;16.80;99.90;;;;;;5044797;28;25110;-70
2021/10/07 12:08:28;;;;;;;11.38;2.80;;;16.80;99.90;;;;;;5041861;28;25134;-70
2021/10/07 12:11:07;;;;;;;9.13;2.72;;;16.90;99.90;;;;;;5036358;28;25070;-71
2021/10/07 12:13:36;;;;;;;16.33;3.25;;;17.10;99.90;;;;;;5040087;28;25159;-70
2021/10/07 12:16:14;;;;;;;9.43;3.25;;;17.20;99.90;;;;;;5045518;28;25111;-70
2021/10/07 12:18:42;;;;;;;11.65;3.22;;;16.90;99.90;;;;;;5042373;28;25118;-70
2021/10/07 12:21:15;;;;;;;11.02;3.70;;;16.80;99.90;;;;;;5044846;28;25074;-73
2021/10/07 12:23:58;;;;;;;21.60;3.97;;;17.30;99.90;;;;;;5035649;28;25052;-71
2021/10/07 12:26:31;;;;;;;14.98;4.28;;;17.70;99.90;;;;;;5045129;28;25089;-70
2021/10/07 12:28:59;;;;;;;10.90;3.50;;;17.80;99.90;;;;;;5045930;28;25056;-68
2021/10/07 12:31:32;;;;;;;15.20;4.20;;;17.90;99.90;;;;;;5045492;28;25130;-71
2021/10/07 12:34:03;;;;;;;8.20;2.88;;;17.80;99.90;;;;;;5041403;28;25135;-71
2021/10/07 12:36:58;;;;;;;12.73;3.47;;;17.80;99.90;;;;;;5043638;28;25142;-71
2021/10/07 12:39:50;;;;;;;10.43;3.58;;;17.80;99.90;;;;;;5024224;28;25143;-70
2021/10/07 12:42:19;;;;;;;9.50;3.70;;;17.70;99.90;;;;;;5039688;28;25072;-69
2021/10/07 12:44:46;;;;;;;11.48;3.72;;;17.90;99.90;;;;;;5051293;28;25059;-71
2021/10/07 12:47:17;;;;;;;17.17;4.55;;;18.00;99.90;;;;;;5041210;28;25129;-71
2021/10/07 12:49:44;;;;;;;9.65;3.55;;;17.60;99.90;;;;;;5043254;28;25092;-71